Time;durP1;ratioP1;P1;durP2;ratioP2;P2;SDS_P1;SDS_P2;PMS_P1;PMS_P2;Temp;Humidity;BMP_temperature;BMP_pressure;BME280_temperature;BME280_humidity;BME280_pressure;Samples;Min_cycle;Max_cycle;Signal;HPM_P1;HPM_P2
2021/12/12 00:00:27;;;;;;;14.45;7.07;;;;;;;-0.78;100.00;96182.25;5001358;28;20061;-80
2021/12/12 00:03:20;;;;;;;13.48;6.90;;;;;;;-0.71;100.00;96193.47;5015288;28;20039;-80
2021/12/12 00:05:55;;;;;;;13.95;6.68;;;;;;;-0.70;100.00;96189.91;5007229;28;20044;-78
2021/12/12 00:08:23;;;;;;;15.20;7.20;;;;;;;-0.77;100.00;96194.19;5000887;28;20065;-79
2021/12/12 00:10:53;;;;;;;19.67;8.32;;;;;;;-0.81;100.00;96198.13;4996604;28;20046;-78
2021/12/12 00:13:29;;;;;;;17.30;8.00;;;;;;;-0.85;100.00;96199.47;5003461;28;20037;-79
2021/12/12 00:15:55;;;;;;;18.50;7.85;;;;;;;-0.80;100.00;96204.91;5011866;28;20041;-79
2021/12/12 00:18:20;;;;;;;17.83;7.63;;;;;;;-0.77;100.00;96212.28;4998808;28;20049;-80
2021/12/12 00:20:47;;;;;;;15.63;7.18;;;;;;;-0.71;100.00;96219.31;5006525;28;20041;-79
2021/12/12 00:23:14;;;;;;;15.50;7.30;;;;;;;-0.76;100.00;96222.44;5011237;28;20042;-79
2021/12/12 00:25:44;;;;;;;13.25;6.88;;;;;;;-0.68;100.00;96218.94;5006268;28;20108;-79
2021/12/12 00:28:10;;;;;;;13.43;7.00;;;;;;;-0.64;100.00;96225.38;5009694;28;20423;-78
2021/12/12 00:30:37;;;;;;;15.77;7.13;;;;;;;-0.66;100.00;96219.59;4981398;28;20042;-80
2021/12/12 00:33:05;;;;;;;16.00;8.00;;;;;;;-0.67;100.00;96214.59;4994383;28;20042;-79
2021/12/12 00:35:32;;;;;;;15.60;7.10;;;;;;;-0.65;100.00;96228.94;4996760;28;20504;-79
2021/12/12 00:38:03;;;;;;;18.92;7.78;;;;;;;-0.67;100.00;96225.72;5004681;28;20050;-79
2021/12/12 00:40:33;;;;;;;22.45;10.32;;;;;;;-0.68;100.00;96229.28;4991824;28;20053;-79
2021/12/12 00:43:02;;;;;;;25.80;11.73;;;;;;;-0.69;100.00;96232.84;5001376;28;20455;-79
2021/12/12 00:45:29;;;;;;;32.33;15.38;;;;;;;-0.71;100.00;96227.06;5004345;28;20037;-79
2021/12/12 00:47:55;;;;;;;44.03;20.35;;;;;;;-0.67;100.00;96230.91;4988305;28;20042;-79
2021/12/12 00:50:35;;;;;;;49.80;20.83;;;;;;;-0.69;100.00;96227.69;4991247;28;20046;-78
2021/12/12 00:53:02;;;;;;;50.60;22.17;;;;;;;-0.67;100.00;96225.72;4989321;28;20029;-77
2021/12/12 00:55:29;;;;;;;52.47;20.75;;;;;;;-0.63;100.00;96226.97;5002752;28;20048;-79
2021/12/12 00:57:55;;;;;;;42.40;18.50;;;;;;;-0.66;100.00;96222.19;5000685;28;20413;-78
2021/12/12 01:00:26;;;;;;;38.95;15.30;;;;;;;-0.63;100.00;96226.97;4977385;28;20050;-79
2021/12/12 01:02:54;;;;;;;32.45;14.48;;;;;;;-0.65;100.00;96228.94;4993765;28;20555;-78
2021/12/12 01:05:20;;;;;;;25.63;11.57;;;;;;;-0.63;100.00;96232.16;5009708;28;20046;-79
2021/12/12 01:07:49;;;;;;;27.92;11.40;;;;;;;-0.65;100.00;96234.09;5001797;28;20038;-79
2021/12/12 01:10:27;;;;;;;26.30;10.85;;;;;;;-0.65;100.00;96236.69;4990566;28;20050;-79
2021/12/12 01:12:55;;;;;;;21.98;10.45;;;;;;;-0.67;100.00;96230.91;4994209;28;20557;-79
2021/12/12 01:15:27;;;;;;;26.85;11.07;;;;;;;-0.63;100.00;96232.16;5000734;28;20645;-77
2021/12/12 01:17:57;;;;;;;21.20;9.77;;;;;;;-0.68;100.00;96236.25;5007551;28;20065;-79
2021/12/12 01:20:22;;;;;;;27.00;11.02;;;;;;;-0.64;100.00;96240.88;4990491;28;20041;-78
2021/12/12 01:22:52;;;;;;;19.15;8.73;;;;;;;-0.58;100.00;96253.06;5004802;28;20097;-79
2021/12/12 01:25:26;;;;;;;23.40;10.23;;;;;;;-0.62;100.00;96251.81;4997837;28;20046;-80
2021/12/12 01:27:53;;;;;;;24.27;9.15;;;;;;;-0.59;100.00;96248.91;5002740;28;20037;-79
2021/12/12 01:30:20;;;;;;;20.60;9.18;;;;;;;-0.56;100.00;96264.06;4976965;28;20504;-78
2021/12/12 01:32:47;;;;;;;23.13;9.68;;;;;;;-0.64;100.00;96265.94;5000990;28;20066;-79
2021/12/12 01:35:16;;;;;;;22.08;9.18;;;;;;;-0.48;100.00;96262.34;5010481;28;20049;-79
2021/12/12 01:38:50;;;;;;;18.70;8.52;;;;;;;-0.53;100.00;96274.03;5008267;28;20038;-79
2021/12/12 01:40:31;;;;;;;20.00;9.05;;;;;;;-0.54;100.00;96277.59;5008760;28;20054;-78
2021/12/12 01:43:09;;;;;;;21.88;8.70;;;;;;;-0.46;100.00;96273.31;4989834;28;20041;-79
2021/12/12 01:45:44;;;;;;;17.25;8.40;;;;;;;-0.47;100.00;96267.34;4995148;28;20038;-77
2021/12/12 01:48:31;;;;;;;18.15;8.85;;;;;;;-0.47;100.00;96276.91;5009778;28;20042;-77
2021/12/12 01:51:00;;;;;;;22.15;8.73;;;;;;;-0.40;100.00;96288.13;4988648;28;20049;-77
2021/12/12 01:53:32;;;;;;;19.55;8.57;;;;;;;-0.51;100.00;96291.16;5008027;28;20100;-77
2021/12/12 01:56:05;;;;;;;17.65;8.10;;;;;;;-0.36;100.00;96281.56;5007448;28;20042;-79
2021/12/12 01:58:33;;;;;;;20.23;8.32;;;;;;;-0.35;100.00;96275.44;4994798;28;20061;-80
2021/12/12 02:01:07;;;;;;;16.50;7.93;;;;;;;-0.43;100.00;96278.13;4987165;28;20045;-80
2021/12/12 02:03:38;;;;;;;19.25;8.25;;;;;;;-0.30;100.00;96272.28;5013226;28;20050;-79
2021/12/12 02:06:11;;;;;;;19.55;7.72;;;;;;;-0.26;100.00;96268.38;4995154;28;20042;-80
2021/12/12 02:08:38;;;;;;;19.30;9.00;;;;;;;-0.29;100.00;96269.53;4978579;28;20037;-80
2021/12/12 02:11:09;;;;;;;17.15;7.72;;;;;;;-0.21;100.00;96278.97;4995243;28;20043;-79
2021/12/12 02:13:46;;;;;;;18.80;9.07;;;;;;;-0.21;100.00;96272.00;4991534;28;20049;-80
2021/12/12 02:16:12;;;;;;;16.90;7.68;;;;;;;-0.12;100.00;96284.84;5009422;28;20648;-81
2021/12/12 02:18:45;;;;;;;19.48;8.25;;;;;;;-0.19;100.00;96290.75;4990235;28;20046;-80
2021/12/12 02:21:25;;;;;;;17.73;8.98;;;;;;;-0.16;100.00;96288.78;5007687;28;20050;-80
2021/12/12 02:35:37;;;;;;;18.80;8.25;;;;;;;-0.15;100.00;96282.63;4996427;28;20050;-77
2021/12/12 02:38:04;;;;;;;20.70;9.18;;;;;;;-0.17;100.00;96277.63;4991186;28;20038;-80
2021/12/12 02:40:53;;;;;;;18.70;8.20;;;;;;;-0.15;100.00;96290.38;5014331;28;20046;-79
2021/12/12 02:43:24;;;;;;;20.63;9.05;;;;;;;-0.12;100.00;96287.44;4985435;28;20050;-81
2021/12/12 02:45:55;;;;;;;19.10;8.40;;;;;;;-0.07;100.00;96287.66;5007854;28;20041;-79
2021/12/12 02:48:32;;;;;;;19.13;8.27;;;;;;;-0.04;100.00;96293.28;4991719;28;20097;-81
2021/12/12 02:51:12;;;;;;;20.60;8.98;;;;;;;-0.07;100.00;96285.06;5013060;28;20522;-81
2021/12/12 02:53:45;;;;;;;16.92;7.93;;;;;;;-0.09;100.00;96289.66;5002114;28;20149;-79
2021/12/12 02:56:16;;;;;;;17.95;9.13;;;;;;;-0.12;100.00;96305.53;5012563;28;20045;-80
2021/12/12 02:58:43;;;;;;;19.27;8.98;;;;;;;-0.14;100.00;96297.13;4996110;28;20050;-81
2021/12/12 03:01:12;;;;;;;19.67;9.05;;;;;;;-0.14;100.00;96297.13;4993965;28;20081;-80
2021/12/12 03:03:40;;;;;;;20.10;9.10;;;;;;;-0.13;100.00;96293.59;5012696;28;20803;-80
2021/12/12 03:06:09;;;;;;;19.80;8.90;;;;;;;-0.03;100.00;96309.59;5012692;28;20048;-81
2021/12/12 03:08:40;;;;;;;22.85;9.27;;;;;;;-0.20;100.00;96294.31;4991465;28;20042;-80
2021/12/12 03:11:06;;;;;;;20.02;8.80;;;;;;;-0.11;100.00;96296.81;4995308;28;20048;-79
2021/12/12 03:13:32;;;;;;;19.55;8.68;;;;;;;0.01;100.00;96300.50;5011182;28;20038;-79
2021/12/12 03:15:57;;;;;;;19.10;8.95;;;;;;;-0.12;100.00;96300.38;5012223;28;20049;-80
2021/12/12 03:18:27;;;;;;;19.08;8.70;;;;;;;-0.16;100.00;96309.47;5008027;28;20046;-81
2021/12/12 03:20:57;;;;;;;19.58;8.50;;;;;;;-0.02;100.00;96306.03;5000592;28;20046;-78
2021/12/12 03:23:28;;;;;;;17.77;8.30;;;;;;;-0.08;100.00;96301.63;5010021;28;20038;-80
2021/12/12 03:26:01;;;;;;;18.83;8.10;;;;;;;-0.01;100.00;96307.66;5011717;28;20038;-80
2021/12/12 03:28:30;;;;;;;16.90;8.23;;;;;;;-0.11;100.00;96304.56;5009863;28;20046;-80
2021/12/12 03:30:59;;;;;;;19.25;8.13;;;;;;;-0.02;100.00;96306.03;5010922;28;20049;-81
2021/12/12 03:33:28;;;;;;;19.88;9.10;;;;;;;0.01;100.00;96305.69;5009188;28;20052;-79
2021/12/12 03:35:55;;;;;;;19.02;8.43;;;;;;;-0.09;100.00;96300.78;5010234;28;20038;-81
2021/12/12 03:38:27;;;;;;;19.88;8.90;;;;;;;-0.06;100.00;96309.97;5004081;28;20053;-79
2021/12/12 03:40:55;;;;;;;17.73;7.47;;;;;;;-0.09;100.00;96312.94;4993502;28;20575;-81
2021/12/12 03:43:20;;;;;;;19.27;8.60;;;;;;;-0.07;100.00;96308.38;4991206;28;20105;-79
2021/12/12 03:45:47;;;;;;;18.17;8.77;;;;;;;-0.06;100.00;96304.81;5010316;28;20038;-78
2021/12/12 03:48:28;;;;;;;16.83;8.30;;;;;;;-0.06;100.00;96304.81;4980706;28;20046;-78
2021/12/12 03:50:57;;;;;;;16.83;7.82;;;;;;;0.02;100.00;96307.28;5011165;28;20041;-78
2021/12/12 03:53:27;;;;;;;20.75;8.82;;;;;;;-0.11;100.00;96302.78;4998231;28;20047;-78
2021/12/12 03:55:55;;;;;;;17.67;8.48;;;;;;;-0.04;100.00;96313.19;4992279;28;20038;-77
2021/12/12 03:58:21;;;;;;;17.88;8.88;;;;;;;-0.03;100.00;96304.44;4991177;28;20052;-76
2021/12/12 04:00:55;;;;;;;20.98;8.60;;;;;;;-0.03;100.00;96304.44;5002774;28;20042;-78
2021/12/12 04:03:21;;;;;;;17.30;7.80;;;;;;;-0.01;100.00;96307.66;5004852;28;20045;-77
2021/12/12 04:05:51;;;;;;;20.38;8.13;;;;;;;-0.01;100.00;96307.66;4997107;28;20046;-78
2021/12/12 04:08:18;;;;;;;17.90;7.40;;;;;;;0.08;100.00;96309.13;5008886;28;20116;-77
2021/12/12 04:10:44;;;;;;;17.05;7.93;;;;;;;-0.01;100.00;96312.84;4996439;28;20050;-77
2021/12/12 04:13:10;;;;;;;18.75;7.82;;;;;;;-0.04;100.00;96315.78;5003783;28;20046;-77
2021/12/12 04:15:36;;;;;;;18.88;8.38;;;;;;;-0.04;100.00;96318.38;4996001;28;20042;-78
2021/12/12 04:18:03;;;;;;;20.45;8.40;;;;;;;-0.05;100.00;96321.94;4996385;28;20168;-76
2021/12/12 04:20:34;;;;;;;18.73;7.93;;;;;;;-0.09;100.00;96315.53;5007092;28;20038;-77
2021/12/12 04:23:00;;;;;;;18.17;7.82;;;;;;;0.01;100.00;96326.38;5006766;28;20420;-79
2021/12/12 04:25:26;;;;;;;16.45;7.78;;;;;;;0.07;100.00;96330.84;5010944;28;20045;-80
2021/12/12 04:27:53;;;;;;;17.02;7.88;;;;;;;-0.02;100.00;96326.75;5010348;28;20070;-78
2021/12/12 04:30:23;;;;;;;16.70;7.78;;;;;;;0.08;100.00;96322.06;4996988;28;20041;-80
2021/12/12 04:32:49;;;;;;;19.42;8.48;;;;;;;-0.02;100.00;96337.09;5007990;28;20113;-79
2021/12/12 04:35:20;;;;;;;20.48;8.50;;;;;;;-0.02;100.00;96348.25;5004367;28;20491;-79
2021/12/12 04:37:46;;;;;;;17.35;6.97;;;;;;;0.07;100.00;96341.19;5005799;28;20065;-78
2021/12/12 04:40:16;;;;;;;19.75;8.32;;;;;;;0.10;100.00;96351.19;5007112;28;20042;-79
2021/12/12 04:42:45;;;;;;;18.80;8.45;;;;;;;-0.04;100.00;96359.78;4996201;28;20042;-79
2021/12/12 04:45:20;;;;;;;16.08;7.22;;;;;;;0.06;100.00;96365.47;4994154;28;20096;-78
2021/12/12 04:50:51;;;;;;;13.98;6.97;;;;;;;0.12;100.00;96354.38;5011879;28;20049;-79
2021/12/12 04:53:31;;;;;;;16.38;7.75;;;;;;;0.14;100.00;96362.78;4982133;28;20046;-80
2021/12/12 04:56:14;;;;;;;16.33;7.82;;;;;;;0.09;100.00;96365.09;4995455;28;20095;-81
2021/12/12 04:58:52;;;;;;;13.93;7.00;;;;;;;-0.01;100.00;96367.19;4999739;28;20523;-79
2021/12/12 05:01:36;;;;;;;15.98;7.45;;;;;;;0.08;100.00;96368.66;5003316;28;20357;-79
2021/12/12 05:04:20;;;;;;;14.88;6.75;;;;;;;0.06;100.00;96375.81;5001473;28;20046;-81
2021/12/12 05:07:04;;;;;;;16.50;7.47;;;;;;;-0.04;100.00;96370.13;5007598;28;20121;-80
2021/12/12 05:09:35;;;;;;;17.63;7.07;;;;;;;-0.08;100.00;96384.41;5005659;28;20050;-81
2021/12/12 05:12:13;;;;;;;15.02;7.55;;;;;;;-0.22;100.00;96389.41;4995144;28;20038;-77
2021/12/12 05:14:45;;;;;;;14.57;7.80;;;;;;;-0.16;100.00;96392.25;4994926;28;20049;-77
2021/12/12 05:17:17;;;;;;;15.60;7.05;;;;;;;0.05;100.00;96389.75;5013058;28;20041;-78
2021/12/12 05:19:49;;;;;;;14.10;6.85;;;;;;;0.02;100.00;96400.47;5022022;28;20064;-78
2021/12/12 05:22:19;;;;;;;14.50;6.72;;;;;;;0.07;100.00;96397.31;5012309;28;20037;-78
2021/12/12 05:24:48;;;;;;;12.70;5.22;;;;;;;0.23;100.00;96406.66;4994741;28;20086;-79
2021/12/12 05:27:18;;;;;;;17.73;6.85;;;;;;;0.24;100.00;96408.28;4992297;28;20073;-78
2021/12/12 05:29:54;;;;;;;17.45;7.30;;;;;;;0.07;100.00;96405.91;5012965;28;20529;-78
2021/12/12 05:32:21;;;;;;;14.38;6.60;;;;;;;0.06;100.00;96412.06;5001529;28;20050;-78
2021/12/12 05:34:49;;;;;;;13.93;6.85;;;;;;;0.19;100.00;96408.81;4993890;28;20098;-78
2021/12/12 05:37:17;;;;;;;11.77;6.00;;;;;;;0.06;100.00;96412.06;4984863;28;20498;-78
2021/12/12 05:39:43;;;;;;;17.73;6.53;;;;;;;0.15;100.00;96416.13;4993911;28;20046;-79
2021/12/12 05:42:10;;;;;;;15.88;7.03;;;;;;;0.13;100.00;96412.94;4995393;28;20049;-77
2021/12/12 05:44:36;;;;;;;14.10;6.05;;;;;;;0.16;100.00;96404.81;5010610;28;20042;-78
2021/12/12 05:47:05;;;;;;;15.15;7.03;;;;;;;0.20;100.00;96396.69;4985668;28;20038;-79
2021/12/12 05:49:32;;;;;;;15.63;6.85;;;;;;;0.10;100.00;96402.94;5006565;28;20074;-79
2021/12/12 05:52:00;;;;;;;13.75;6.60;;;;;;;0.19;100.00;96405.41;5003136;28;20042;-80
2021/12/12 05:54:28;;;;;;;18.23;7.13;;;;;;;0.21;100.00;96408.63;5012656;28;20046;-79
2021/12/12 05:56:54;;;;;;;13.90;6.63;;;;;;;0.10;100.00;96408.13;5012888;28;20041;-80
2021/12/12 05:59:21;;;;;;;12.95;6.38;;;;;;;0.20;100.00;96419.97;4988141;28;20046;-79
2021/12/12 06:01:49;;;;;;;15.07;6.72;;;;;;;0.20;100.00;96417.38;4994355;28;20042;-81
2021/12/12 06:04:17;;;;;;;13.63;6.43;;;;;;;0.09;100.00;96416.88;4984009;28;20045;-78
2021/12/12 06:06:44;;;;;;;12.68;6.30;;;;;;;0.16;100.00;96422.94;4993505;28;20064;-80
2021/12/12 06:09:12;;;;;;;13.32;6.30;;;;;;;0.10;100.00;96426.25;4999432;28;20042;-79
2021/12/12 06:11:41;;;;;;;11.30;6.00;;;;;;;0.12;100.00;96426.84;4995352;28;20643;-80
2021/12/12 06:14:08;;;;;;;13.75;7.07;;;;;;;0.13;100.00;96433.66;4992089;28;20073;-80
2021/12/12 06:16:36;;;;;;;13.98;6.30;;;;;;;0.10;100.00;96431.44;5004648;28;20093;-79
2021/12/12 06:19:06;;;;;;;17.02;7.00;;;;;;;0.10;100.00;96439.19;5011162;28;20103;-80
2021/12/12 06:21:32;;;;;;;14.55;6.93;;;;;;;0.09;100.00;96447.13;4994235;28;20046;-78
2021/12/12 06:23:59;;;;;;;17.55;7.45;;;;;;;0.10;100.00;96439.19;5009554;28;20046;-81
2021/12/12 06:26:25;;;;;;;18.05;6.80;;;;;;;0.07;100.00;96444.72;5010897;28;20648;-78
2021/12/12 06:28:52;;;;;;;12.07;6.07;;;;;;;0.15;100.00;96442.03;4988972;28;20046;-80
2021/12/12 06:31:19;;;;;;;11.48;5.70;;;;;;;0.16;100.00;96435.88;5004833;28;20499;-80
2021/12/12 06:33:44;;;;;;;17.45;7.13;;;;;;;0.03;100.00;96438.31;5011898;28;20056;-80
2021/12/12 06:36:13;;;;;;;15.73;6.68;;;;;;;-0.04;100.00;96452.94;4994676;28;20105;-78
2021/12/12 06:38:42;;;;;;;14.57;7.05;;;;;;;-0.08;100.00;96451.69;5006207;28;20107;-78
2021/12/12 06:41:09;;;;;;;15.05;6.75;;;;;;;-0.18;100.00;96447.56;5007921;28;20049;-81
2021/12/12 06:43:36;;;;;;;16.30;7.15;;;;;;;-0.18;100.00;96452.75;4992369;28;20044;-78
2021/12/12 06:46:04;;;;;;;14.60;6.55;;;;;;;-0.18;100.00;96452.75;4990173;28;20034;-80
2021/12/12 06:48:30;;;;;;;16.80;7.53;;;;;;;-0.15;100.00;96461.94;4998384;28;20414;-81
2021/12/12 06:50:56;;;;;;;15.25;7.20;;;;;;;-0.20;100.00;96457.31;5005060;28;20046;-81
2021/12/12 06:53:26;;;;;;;16.15;6.70;;;;;;;-0.07;100.00;96458.44;5005077;28;20046;-80
2021/12/12 06:55:52;;;;;;;14.43;6.75;;;;;;;-0.03;100.00;96459.69;4995886;28;20061;-80
2021/12/12 06:58:20;;;;;;;16.25;7.28;;;;;;;-0.11;100.00;96457.22;5006212;28;20070;-80
2021/12/12 07:00:50;;;;;;;12.93;5.90;;;;;;;0.11;100.00;96461.47;4992965;28;20045;-81
2021/12/12 07:03:17;;;;;;;14.23;6.53;;;;;;;-0.04;100.00;96463.28;4998429;28;20046;-78
2021/12/12 07:05:43;;;;;;;11.98;6.10;;;;;;;0.01;100.00;96466.13;5000701;28;20049;-79
2021/12/12 07:08:10;;;;;;;14.45;6.05;;;;;;;0.02;100.00;96467.75;5000260;28;20046;-79
2021/12/12 07:10:36;;;;;;;13.10;6.28;;;;;;;-0.07;100.00;96473.97;5009820;28;20054;-79
2021/12/12 07:13:02;;;;;;;13.00;5.97;;;;;;;-0.12;100.00;96477.09;5006445;28;20046;-78
2021/12/12 07:15:32;;;;;;;11.93;6.53;;;;;;;-0.10;100.00;96474.34;4992847;28;20042;-79
2021/12/12 07:18:00;;;;;;;13.13;6.68;;;;;;;-0.04;100.00;96484.78;4992678;28;20046;-80
2021/12/12 07:20:27;;;;;;;10.60;5.78;;;;;;;0.03;100.00;96474.53;4984190;28;20117;-78
2021/12/12 07:22:53;;;;;;;13.05;5.90;;;;;;;-0.09;100.00;96473.34;5009767;28;20038;-81
2021/12/12 07:25:19;;;;;;;14.40;6.47;;;;;;;-0.10;100.00;96469.16;5008170;28;20089;-81
2021/12/12 07:27:45;;;;;;;12.98;5.85;;;;;;;0.06;100.00;96474.16;5013626;28;20092;-80
2021/12/12 07:30:11;;;;;;;12.18;6.25;;;;;;;0.20;100.00;96492.47;4998198;28;20049;-80
2021/12/12 07:32:38;;;;;;;11.38;5.43;;;;;;;0.14;100.00;96492.22;5013469;28;20045;-81
2021/12/12 07:35:12;;;;;;;13.10;6.35;;;;;;;-0.02;100.00;96500.13;5003366;28;20042;-79
2021/12/12 07:37:38;;;;;;;15.27;6.43;;;;;;;-0.04;100.00;96499.53;5007155;28;20039;-81
2021/12/12 07:40:06;;;;;;;12.18;6.45;;;;;;;0.02;100.00;96514.31;5002490;28;20303;-79
2021/12/12 07:42:32;;;;;;;16.25;7.10;;;;;;;-0.06;100.00;96506.63;5008059;28;20535;-79
2021/12/12 07:44:59;;;;;;;12.50;6.28;;;;;;;-0.01;100.00;96510.31;5008245;28;20048;-81
2021/12/12 07:47:25;;;;;;;13.52;5.80;;;;;;;0.03;100.00;96510.75;5013155;28;20045;-78
2021/12/12 07:49:51;;;;;;;9.70;5.38;;;;;;;0.41;100.00;96513.25;5011962;28;20535;-80
2021/12/12 07:52:21;;;;;;;11.68;5.40;;;;;;;0.39;100.00;96507.47;5015051;28;20046;-81
2021/12/12 07:54:49;;;;;;;13.68;5.88;;;;;;;0.27;100.00;96511.47;4997426;28;20037;-80
2021/12/12 07:57:16;;;;;;;12.70;6.00;;;;;;;0.11;100.00;96518.44;5011104;28;20404;-79
2021/12/12 07:59:42;;;;;;;14.27;6.70;;;;;;;0.02;100.00;96508.34;5005557;28;20061;-79
2021/12/12 08:02:10;;;;;;;14.40;6.07;;;;;;;0.03;100.00;96508.19;5014881;28;20042;-79
2021/12/12 08:04:37;;;;;;;11.48;5.88;;;;;;;0.05;100.00;96524.31;5010636;28;20073;-79
2021/12/12 08:07:07;;;;;;;10.73;5.28;;;;;;;0.04;100.00;96525.28;5024571;28;20084;-79
2021/12/12 08:09:33;;;;;;;12.75;6.07;;;;;;;0.06;100.00;96510.41;4996237;28;20058;-79
2021/12/12 08:11:59;;;;;;;11.50;5.20;;;;;;;0.05;100.00;96508.78;5011622;28;20087;-80
2021/12/12 08:14:27;;;;;;;11.60;5.43;;;;;;;0.05;100.00;96506.19;4996252;28;20510;-79
2021/12/12 08:16:54;;;;;;;11.02;5.60;;;;;;;0.39;100.00;96504.03;5006650;28;20037;-80
2021/12/12 08:19:22;;;;;;;13.52;6.07;;;;;;;0.32;100.00;96499.59;4993388;28;20042;-80
2021/12/12 08:21:49;;;;;;;12.20;5.85;;;;;;;0.37;100.00;96509.41;5007397;28;20038;-79
2021/12/12 08:24:16;;;;;;;15.75;6.03;;;;;;;0.42;100.00;96509.69;4995079;28;20535;-77
2021/12/12 08:26:44;;;;;;;10.98;5.28;;;;;;;0.45;100.00;96509.31;4990003;28;20088;-76
2021/12/12 08:29:12;;;;;;;12.00;5.53;;;;;;;0.32;100.00;96509.16;4994496;28;20042;-77
2021/12/12 08:31:39;;;;;;;14.73;6.60;;;;;;;0.24;100.00;96507.44;4997256;28;20054;-76
2021/12/12 08:34:07;;;;;;;11.68;5.75;;;;;;;0.32;100.00;96509.16;5001559;28;20069;-75
2021/12/12 08:36:35;;;;;;;13.35;6.13;;;;;;;0.33;100.00;96510.75;5008552;28;20096;-75
2021/12/12 08:39:03;;;;;;;11.65;5.70;;;;;;;0.49;100.00;96505.38;5006702;28;20061;-75
2021/12/12 08:41:29;;;;;;;11.32;5.68;;;;;;;0.43;100.00;96511.28;5016443;28;20038;-77
2021/12/12 08:43:55;;;;;;;12.32;5.90;;;;;;;0.61;99.17;96503.13;4993828;28;20049;-78
2021/12/12 08:46:23;;;;;;;12.73;6.63;;;;;;;0.80;97.45;96512.09;5013725;28;20064;-77
2021/12/12 08:48:51;;;;;;;11.40;6.05;;;;;;;0.77;98.64;96506.50;4998566;28;20034;-79
2021/12/12 08:51:29;;;;;;;11.20;5.80;;;;;;;0.78;99.64;96508.91;5002557;28;20423;-77
2021/12/12 08:53:57;;;;;;;11.98;5.90;;;;;;;0.69;99.80;96510.81;5007343;28;20046;-79
2021/12/12 08:56:44;;;;;;;14.43;6.38;;;;;;;0.67;100.00;96514.56;5013943;28;20046;-77
2021/12/12 08:59:31;;;;;;;10.40;5.53;;;;;;;0.91;96.77;96517.81;5003584;28;20046;-79
2021/12/12 09:02:01;;;;;;;13.80;6.50;;;;;;;0.98;96.98;96508.31;5026479;28;20061;-75
2021/12/12 09:04:30;;;;;;;12.43;6.30;;;;;;;0.95;97.35;96504.31;5026362;28;20052;-76
2021/12/12 09:07:05;;;;;;;14.98;6.63;;;;;;;0.90;97.00;96511.03;5005322;28;20038;-78
2021/12/12 09:10:03;;;;;;;13.68;7.10;;;;;;;0.78;97.36;96506.31;5009956;28;20045;-78
2021/12/12 09:12:35;;;;;;;13.50;6.55;;;;;;;0.93;96.49;96515.84;5012478;28;20062;-78
2021/12/12 09:15:13;;;;;;;13.07;6.47;;;;;;;0.92;97.99;96516.81;5012238;28;20044;-78
2021/12/12 09:17:53;;;;;;;15.27;6.97;;;;;;;0.98;97.79;96513.50;5011301;28;20120;-75
2021/12/12 09:20:23;;;;;;;14.55;6.45;;;;;;;1.16;96.10;96532.00;5009783;28;20049;-76
2021/12/12 09:23:13;;;;;;;13.40;6.53;;;;;;;1.28;95.33;96518.56;5011744;28;20052;-78
2021/12/12 09:26:01;;;;;;;13.40;6.13;;;;;;;1.24;94.61;96518.16;5003385;28;20042;-78
2021/12/12 09:28:29;;;;;;;12.48;6.15;;;;;;;1.27;95.88;96522.97;5011361;28;20718;-79
2021/12/12 09:31:02;;;;;;;12.52;6.13;;;;;;;1.38;94.53;96525.06;5005753;28;20121;-78
2021/12/12 09:33:50;;;;;;;16.10;6.20;;;;;;;1.63;92.43;96526.47;5001722;28;20486;-77
2021/12/12 09:36:20;;;;;;;14.00;6.13;;;;;;;1.76;94.86;96525.78;4992426;28;20049;-79
2021/12/12 09:38:53;;;;;;;15.52;7.10;;;;;;;2.45;91.87;96529.41;5001161;28;20045;-78
2021/12/12 09:41:56;;;;;;;14.33;6.67;;;;;;;3.85;83.11;96529.72;5009338;28;20041;-77
2021/12/12 09:44:48;;;;;;;11.40;5.07;;;;;;;4.53;78.98;96525.97;5004308;28;20048;-76
2021/12/12 09:47:59;;;;;;;10.30;5.20;;;;;;;4.77;77.42;96523.66;5003829;28;20046;-79
2021/12/12 09:53:55;;;;;;;9.77;5.10;;;;;;;5.51;75.29;96522.25;4999450;28;20049;-78
2021/12/12 09:56:49;;;;;;;10.48;5.70;;;;;;;5.20;76.61;96515.22;4983573;28;20107;-77
2021/12/12 09:59:31;;;;;;;10.85;5.93;;;;;;;5.50;75.24;96504.19;4993673;28;20038;-79
2021/12/12 10:02:20;;;;;;;8.02;4.75;;;;;;;5.58;75.47;96506.53;5011679;28;20058;-79
2021/12/12 10:05:06;;;;;;;10.70;5.10;;;;;;;6.35;74.56;96500.25;4981728;28;20046;-82
2021/12/12 10:07:41;;;;;;;9.10;4.50;;;;;;;6.58;70.39;96497.00;4991007;28;20112;-81
2021/12/12 10:10:15;;;;;;;13.20;6.70;;;;;;;6.53;70.87;96496.84;5006513;28;20135;-79
2021/12/12 10:12:57;;;;;;;7.82;4.47;;;;;;;7.03;67.68;96494.00;5004607;28;20037;-80
2021/12/12 10:15:27;;;;;;;9.23;4.35;;;;;;;7.79;68.85;96491.66;5006993;28;20045;-80
2021/12/12 10:17:56;;;;;;;7.70;3.80;;;;;;;7.08;66.24;96499.38;5011336;28;20048;-80
2021/12/12 10:20:35;;;;;;;7.47;4.53;;;;;;;7.35;66.63;96488.50;5003522;28;20066;-81
2021/12/12 10:23:20;;;;;;;8.32;4.82;;;;;;;7.62;64.21;96488.13;5002820;28;20045;-79
2021/12/12 10:25:45;;;;;;;7.38;4.22;;;;;;;7.01;65.91;96488.19;5004423;28;20412;-80
2021/12/12 10:28:25;;;;;;;7.72;4.50;;;;;;;7.36;70.15;96484.88;5002474;28;20069;-81
2021/12/12 10:31:08;;;;;;;7.00;4.07;;;;;;;7.59;64.30;96478.09;4989184;28;20052;-81
2021/12/12 10:33:47;;;;;;;9.85;4.70;;;;;;;8.51;67.26;96478.53;5004600;28;20045;-81
2021/12/12 10:36:19;;;;;;;6.93;4.13;;;;;;;8.57;62.59;96477.59;5003103;28;20045;-81
2021/12/12 10:39:04;;;;;;;8.55;3.92;;;;;;;7.65;64.20;96477.19;5006868;28;20053;-80
2021/12/12 10:41:36;;;;;;;7.90;3.70;;;;;;;7.18;64.52;96477.09;5010331;28;20104;-80
2021/12/12 10:44:13;;;;;;;9.35;3.85;;;;;;;7.87;63.37;96472.16;4991993;28;20045;-81
2021/12/12 10:47:09;;;;;;;8.68;3.75;;;;;;;7.94;63.77;96469.44;4990561;28;20046;-79
2021/12/12 10:49:36;;;;;;;6.90;3.92;;;;;;;8.45;60.44;96459.28;4989014;28;20054;-80
2021/12/12 10:52:09;;;;;;;7.55;4.57;;;;;;;8.91;62.30;96456.72;5005927;28;20503;-80
2021/12/12 10:54:58;;;;;;;7.35;3.80;;;;;;;9.27;58.24;96459.97;5010794;28;20110;-82
2021/12/12 10:57:27;;;;;;;6.55;3.70;;;;;;;9.40;58.04;96454.41;4997779;28;20042;-80
2021/12/12 11:00:13;;;;;;;6.72;3.83;;;;;;;9.54;58.46;96455.69;5003595;28;20570;-81
2021/12/12 11:02:55;;;;;;;7.35;3.88;;;;;;;9.62;58.84;96453.69;4994857;28;20050;-79
2021/12/12 11:05:31;;;;;;;7.35;4.05;;;;;;;9.17;57.70;96443.00;4992859;28;20611;-79
2021/12/12 11:08:14;;;;;;;5.25;3.05;;;;;;;8.47;58.75;96458.00;5006852;28;20113;-77
2021/12/12 11:10:44;;;;;;;6.25;3.80;;;;;;;8.48;58.28;96459.59;5009858;28;20045;-80
2021/12/12 11:13:31;;;;;;;6.78;3.70;;;;;;;8.73;58.48;96460.31;5010656;28;20050;-79
2021/12/12 11:16:04;;;;;;;5.75;3.35;;;;;;;8.30;57.15;96457.09;5008076;28;20080;-78
2021/12/12 11:18:57;;;;;;;8.73;3.30;;;;;;;8.82;59.63;96454.47;5003767;28;20043;-78
2021/12/12 11:21:34;;;;;;;6.13;3.53;;;;;;;8.79;57.09;96454.13;4997967;28;20167;-78
2021/12/12 11:24:01;;;;;;;6.50;3.35;;;;;;;8.22;60.38;96460.09;4995071;28;20057;-78
2021/12/12 11:26:40;;;;;;;5.63;3.22;;;;;;;7.55;62.04;96445.50;5002320;28;20092;-77
2021/12/12 11:29:40;;;;;;;5.03;3.20;;;;;;;9.02;56.27;96437.47;5002522;28;20503;-77
2021/12/12 11:32:17;;;;;;;6.38;3.08;;;;;;;8.80;57.85;96435.53;4986764;28;20050;-78
2021/12/12 11:34:48;;;;;;;4.55;2.70;;;;;;;8.20;60.85;96438.53;5005520;28;20492;-78
2021/12/12 11:37:28;;;;;;;4.95;2.78;;;;;;;8.53;58.07;96434.50;5005988;28;20046;-78
2021/12/12 11:40:05;;;;;;;5.20;2.90;;;;;;;8.94;57.10;96432.63;5003630;28;20038;-75
2021/12/12 11:42:44;;;;;;;7.75;4.32;;;;;;;9.36;55.55;96416.50;5005629;28;20482;-75
2021/12/12 11:45:17;;;;;;;7.43;3.88;;;;;;;7.30;62.34;96438.66;4995268;28;20053;-75
2021/12/12 11:47:58;;;;;;;6.75;3.67;;;;;;;6.82;64.57;96437.72;4993524;28;20101;-77
2021/12/12 11:50:46;;;;;;;7.22;3.65;;;;;;;6.10;67.26;96434.97;4993747;28;20060;-78
2021/12/12 11:53:39;;;;;;;9.00;3.92;;;;;;;5.46;76.89;96437.75;5006648;28;20072;-83
2021/12/12 11:56:09;;;;;;;6.38;3.88;;;;;;;5.26;70.96;96430.88;5005552;28;20046;-76
2021/12/12 11:58:59;;;;;;;6.65;3.60;;;;;;;5.05;71.76;96439.06;5007766;28;20046;-76
2021/12/12 12:01:32;;;;;;;7.75;4.43;;;;;;;4.63;75.24;96432.47;4990419;28;20092;-76
2021/12/12 12:04:24;;;;;;;8.23;3.95;;;;;;;4.55;75.48;96439.75;5005359;28;20534;-76